Huvudsida
METAR-TAF:

METAR-TAF

Flygplatser :

Sukkur, Pakistan

latitud: 27-43-19N, longitud: 068-47-31E, höjd: 60 m

Aktuellt väderrapport

Denna rapport gjordes för 1 timme och 13 minuter sedan, klockan 09:00 UTC
Vind 6 kt från nordost
Temperatur 41°C
Fuktighet 30%
Tryck 1001 hPa
Sikt: 7000 m
torrdis,

METAR: OPSK 200900Z 05006KT 7000 HZ NSC 41/20 Q1001 NOSIG

Tid: 15:13 (10:13 UTC)

Väderprognos

Denna rapport gjordes för 5 timmar och 13 minuter sedan, klockan 05:00 UTC
Prognos gäller från 20 kl. 06 UTC till 21 kl. 06 UTC
Vind 5 kt från sydost i byarna ända upp till 15 kt
Sikt: 6000 m
Blir
från 20 kl. 18 UTC till 20 kl. 20 UTC
Vind 3 kt varierande vindriktning
Sikt: 4000 m
torrdis
Temporärt
från 21 kl. 00 UTC till 21 kl. 04 UTC
Vind 5 kt från sydost
Sikt: 4000 m
torrdis,

TAF: OPSK 200500Z 2006/2106 14005G15KT 6000 NSC BECMG 2018/2020 VRB03KT 4000 HZ NSC TEMPO 2100/2104 13005KT 4000 HZ NSC

Aktuella väderrapporter och prognoser från 4000 flygplatser (METAR- och TAF-rapporter).

De tillgängliga stationerna syns som gula och röda prickar på kartan.

För musen över prickarna för att se namnen på stationerna.

Klicka sedan för att få väderrapporter och prognoser.

För att ändra kartan: Klicka på de gröna knapparna med ett svart kors på för att zooma in; den gröna knappen med ett streck på för att zooma ut; eller på de gröna pilarna för angränsande kartor.


METAR-TAF: